首页
METAR-TAF:

METAR-TAF

机场 :

拉罗歇尔, 法国

纬度: 46-10-45N, 经度: 1-11-43W, 海拔: 23米

当前天气观测

该预报发布于37分钟前的16:30 UTC
风速16节,风向西
温度 18°C
湿度 68%
气压 1007 hPa
能见度10公里或以上
多云层高于1800英尺
多云层高于2400英尺
阴天层高于3400英尺

METAR: LFBH 051630Z AUTO 26016KT 9999 BKN018 BKN024 OVC034 18/12 Q1007 NOSIG

时间: 19:07 (17:07 UTC)

预报

该预报发布于6小时和7分钟前的11:00 UTC
预报有效从05日的 12点(UTC)到 06日的 12点(UTC)
风速15节,风向西
能见度10公里或以上
多云层高于2000英尺
短暂存在
从 05日的 12点(UTC)到 05日的 16点(UTC)
风速20节,风向西,有时为30节阵风
短暂存在
从 05日的 21点(UTC)到 06日的 06点(UTC)
风速15节,风向西转西南,有时为25节阵风
能見度: 4000
阵雨
成为
从 06日的 06点(UTC)到 06日的 08点(UTC)
风速10节,风向北转西北

TAF: LFBH 051100Z 0512/0612 27015KT 9999 BKN020 TEMPO 0512/0516 28020G30KT TEMPO 0521/0606 25015G25KT 4000 SHRA BECMG 0606/0608 33010KT

超过4000个机场的气象观测和天气预报(METAR&TAF报告)。

可查询的气象台以黄色和红色小点在地图上表示。

将鼠标移到小点上方,可查看气象台名称。

然后点击查看天气观测和预报。

如需切换地图:点击带黑十字的绿色按钮放大地图;点击带横线的绿色按钮缩小地图;或者点击绿色箭头查看邻近地区的地图。


METAR-TAF: